Time;durP1;ratioP1;P1;durP2;ratioP2;P2;SDS_P1;SDS_P2;PMS_P1;PMS_P2;Temp;Humidity;BMP_temperature;BMP_pressure;BME280_temperature;BME280_humidity;BME280_pressure;Samples;Min_cycle;Max_cycle;Signal;HPM_P1;HPM_P2
2023/07/25 00:09:26;;;;;;;4.90;2.80;;;;;;;20.89;98.24;98681.39;678037;1263;139459;-78
2023/07/25 00:24:29;;;;;;;4.30;2.20;;;;;;;20.19;99.85;98652.51;675361;1262;139423;-78
2023/07/25 00:39:32;;;;;;;3.20;2.20;;;;;;;20.03;100.00;98640.55;674875;1262;139618;-77
2023/07/25 00:54:45;;;;;;;4.60;2.90;;;;;;;19.93;100.00;98632.29;677619;1262;139550;-77
2023/07/25 01:09:48;;;;;;;6.70;2.20;;;;;;;20.24;100.00;98650.41;677285;1262;140419;-77
2023/07/25 01:24:54;;;;;;;5.40;2.20;;;;;;;20.09;100.00;98680.27;675961;1260;139530;-77
2023/07/25 01:39:58;;;;;;;10.80;4.30;;;;;;;19.92;100.00;98683.23;676302;1263;139154;-76
2023/07/25 01:55:02;;;;;;;7.00;3.40;;;;;;;19.79;100.00;98702.05;675653;1260;139163;-77
2023/07/25 02:10:06;;;;;;;4.70;2.30;;;;;;;19.54;100.00;98718.54;677180;1262;140320;-77
2023/07/25 02:25:09;;;;;;;4.10;2.40;;;;;;;19.59;100.00;98719.80;675301;1263;140196;-77
2023/07/25 02:40:13;;;;;;;5.10;2.40;;;;;;;19.44;100.00;98731.88;679183;1262;139822;-80
2023/07/25 02:55:18;;;;;;;4.90;2.90;;;;;;;19.16;100.00;98741.05;674244;1261;140161;-78
2023/07/25 03:10:22;;;;;;;5.60;2.70;;;;;;;18.99;100.00;98748.92;676753;1279;139385;-79
2023/07/25 03:25:25;;;;;;;3.20;1.90;;;;;;;19.09;100.00;98753.31;674935;1262;139915;-78
2023/07/25 03:40:28;;;;;;;4.80;2.20;;;;;;;19.06;100.00;98777.69;674771;1263;139559;-78
2023/07/25 03:55:32;;;;;;;3.10;2.20;;;;;;;19.27;100.00;98776.39;678870;1257;139004;-78
2023/07/25 04:10:36;;;;;;;5.60;2.70;;;;;;;19.33;100.00;98789.38;676770;1263;139029;-78
2023/07/25 04:25:40;;;;;;;4.90;2.20;;;;;;;19.44;100.00;98803.39;673224;1263;139511;-79
2023/07/25 04:40:43;;;;;;;4.70;3.40;;;;;;;19.79;100.00;98815.92;674802;1263;139686;-77
2023/07/25 04:55:47;;;;;;;7.50;3.90;;;;;;;20.22;100.00;98823.27;675514;1263;140221;-77
2023/07/25 05:10:53;;;;;;;7.40;3.40;;;;;;;20.80;100.00;98826.41;677363;1262;138919;-77
2023/07/25 05:25:56;;;;;;;6.10;3.30;;;;;;;21.11;100.00;98827.17;674706;1267;139069;-77
2023/07/25 05:41:00;;;;;;;9.60;4.20;;;;;;;21.69;100.00;98856.59;679154;1263;139495;-78
2023/07/25 05:56:04;;;;;;;12.70;5.50;;;;;;;21.82;100.00;98868.27;678668;1270;139260;-78
2023/07/25 06:11:07;;;;;;;9.20;5.80;;;;;;;21.29;100.00;98886.25;676428;1261;139609;-76
2023/07/25 06:26:11;;;;;;;7.20;5.10;;;;;;;21.85;98.98;98884.63;674073;1257;139902;-77
2023/07/25 06:41:14;;;;;;;7.40;4.90;;;;;;;23.88;90.71;98886.08;675965;1262;139907;-77
2023/07/25 06:56:17;;;;;;;6.50;4.40;;;;;;;22.78;90.72;98895.35;678721;1264;140507;-76
2023/07/25 07:11:21;;;;;;;7.50;5.10;;;;;;;21.73;95.55;98912.73;681044;1260;140406;-77
2023/07/25 07:26:24;;;;;;;9.60;5.10;;;;;;;21.70;97.25;98932.70;678294;1264;139682;-77
2023/07/25 07:41:28;;;;;;;6.30;4.40;;;;;;;21.97;94.39;98932.77;679123;1260;139433;-78
2023/07/25 07:56:32;;;;;;;7.00;4.30;;;;;;;25.12;80.68;98931.65;676613;1263;139801;-79
2023/07/25 08:11:36;;;;;;;5.10;3.70;;;;;;;26.23;72.47;98934.66;679417;1260;139197;-78
2023/07/25 08:26:39;;;;;;;8.20;3.80;;;;;;;26.50;68.45;98950.45;679342;1260;138730;-78
2023/07/25 08:41:51;;;;;;;4.80;3.50;;;;;;;27.00;66.62;98938.61;675327;1257;138888;-78
2023/07/25 08:56:54;;;;;;;3.30;2.70;;;;;;;26.99;65.41;98916.83;672551;1262;138171;-78
2023/07/25 09:11:58;;;;;;;5.10;3.00;;;;;;;28.34;60.65;98892.62;677315;1257;138774;-78
2023/07/25 09:27:02;;;;;;;4.60;3.10;;;;;;;27.78;60.01;98882.89;674887;1263;139806;-77
2023/07/25 09:42:07;;;;;;;3.70;2.80;;;;;;;28.87;58.18;98914.50;678203;1263;139198;-77
2023/07/25 09:57:10;;;;;;;6.00;3.30;;;;;;;28.82;55.58;98944.71;678542;1262;138639;-77
2023/07/25 10:12:14;;;;;;;5.90;2.90;;;;;;;26.49;59.12;98967.48;681434;1260;139339;-77
2023/07/25 10:27:18;;;;;;;5.20;3.50;;;;;;;27.22;58.27;98966.36;677592;1260;138716;-77
2023/07/25 10:42:34;;;;;;;5.60;3.50;;;;;;;28.07;56.69;98952.63;675179;1257;140029;-76
2023/07/25 10:57:38;;;;;;;5.90;2.90;;;;;;;28.10;56.90;98944.47;675906;1262;139006;-78
2023/07/25 11:12:41;;;;;;;4.40;2.80;;;;;;;27.53;55.69;98946.00;679690;1262;140080;-78
2023/07/25 11:27:47;;;;;;;5.30;3.80;;;;;;;28.59;53.33;98942.85;678423;1260;139538;-77
2023/07/25 11:42:50;;;;;;;4.60;2.40;;;;;;;28.81;53.59;98935.66;678659;1259;139429;-77
2023/07/25 11:57:54;;;;;;;17.80;12.70;;;;;;;28.05;53.62;98942.63;672483;1261;138521;-78
2023/07/25 12:12:59;;;;;;;9.30;4.90;;;;;;;27.36;56.28;98974.57;679193;1273;139748;-76
2023/07/25 12:28:02;;;;;;;8.50;3.30;;;;;;;27.26;56.89;98973.92;677574;1259;138289;-77
2023/07/25 12:43:05;;;;;;;7.90;2.60;;;;;;;27.73;56.28;98977.70;674939;1274;139007;-77
2023/07/25 12:58:09;;;;;;;5.40;2.60;;;;;;;27.55;56.73;98980.12;675987;1257;139399;-77
2023/07/25 13:13:13;;;;;;;6.40;3.10;;;;;;;27.78;55.93;98978.30;677598;1274;138661;-78
2023/07/25 13:28:16;;;;;;;3.40;2.80;;;;;;;27.28;55.58;98964.99;681524;1258;139067;-78
2023/07/25 13:43:20;;;;;;;4.60;2.60;;;;;;;27.05;56.41;98968.11;679717;1262;139728;-78
2023/07/25 13:58:24;;;;;;;5.90;2.90;;;;;;;26.50;56.94;98977.46;677962;1259;139362;-80
2023/07/25 14:13:27;;;;;;;4.10;2.50;;;;;;;26.32;56.50;98969.00;677247;1262;139595;-78
2023/07/25 14:28:31;;;;;;;9.00;5.90;;;;;;;26.45;56.26;98954.95;678234;1262;138466;-81
2023/07/25 14:43:34;;;;;;;14.50;5.00;;;;;;;26.45;56.20;98936.61;677064;1262;138377;-78
2023/07/25 14:58:38;;;;;;;7.50;3.20;;;;;;;26.43;56.22;98925.86;674688;1257;140709;-79
2023/07/25 15:13:42;;;;;;;22.90;11.00;;;;;;;26.27;56.32;98925.27;675787;1261;138563;-78
2023/07/25 15:28:47;;;;;;;16.30;9.50;;;;;;;26.06;57.69;98939.83;675749;1261;139300;-77
2023/07/25 15:43:51;;;;;;;9.80;6.90;;;;;;;25.67;59.12;98952.83;682246;1260;139401;-77
2023/07/25 15:58:54;;;;;;;6.40;3.70;;;;;;;25.54;60.03;98970.48;680795;1259;138375;-77
2023/07/25 16:13:58;;;;;;;9.00;4.10;;;;;;;25.61;60.45;98971.02;676473;1257;139095;-78
2023/07/25 16:29:02;;;;;;;6.40;3.20;;;;;;;25.31;61.38;98950.77;676816;1260;138602;-78
2023/07/25 16:44:05;;;;;;;5.30;3.10;;;;;;;24.87;62.04;98938.34;675592;1263;138824;-78
2023/07/25 16:59:09;;;;;;;6.00;2.60;;;;;;;24.23;63.25;98941.14;676737;1260;138637;-78
2023/07/25 17:14:13;;;;;;;7.70;2.50;;;;;;;24.45;63.55;98956.55;679602;1259;139460;-79
2023/07/25 17:29:17;;;;;;;8.50;2.00;;;;;;;24.25;64.17;98966.44;681991;1265;138552;-78
2023/07/25 17:44:20;;;;;;;9.10;4.30;;;;;;;23.88;64.55;98969.89;680393;1257;138189;-79
2023/07/25 17:59:24;;;;;;;5.80;3.50;;;;;;;23.36;65.89;98976.67;679635;1261;139082;-78
2023/07/25 18:14:28;;;;;;;4.90;3.10;;;;;;;23.32;65.52;98978.42;681559;1263;138790;-78
2023/07/25 18:29:31;;;;;;;4.10;2.90;;;;;;;23.20;65.23;98984.35;681533;1263;138397;-78
2023/07/25 18:44:35;;;;;;;8.50;4.30;;;;;;;23.21;65.33;98988.20;681463;1273;138980;-79
2023/07/25 18:59:38;;;;;;;9.80;4.60;;;;;;;22.90;65.90;98995.41;681546;1263;138902;-80
2023/07/25 19:14:42;;;;;;;14.40;5.70;;;;;;;22.37;67.00;99025.27;681508;1262;139028;-78
2023/07/25 19:29:46;;;;;;;24.80;11.20;;;;;;;22.16;67.48;99042.55;681396;1260;139035;-78
2023/07/25 19:44:49;;;;;;;18.80;10.00;;;;;;;21.69;69.13;99035.31;681808;1261;140757;-78
2023/07/25 19:59:53;;;;;;;14.40;7.70;;;;;;;21.04;70.56;99025.47;681817;1262;138427;-79
2023/07/25 20:14:57;;;;;;;16.60;7.20;;;;;;;20.38;72.25;99030.02;681931;1257;139336;-78
2023/07/25 20:30:01;;;;;;;14.80;7.30;;;;;;;20.10;73.18;99033.28;680280;1261;139112;-78
2023/07/25 20:45:07;;;;;;;16.90;7.90;;;;;;;19.87;74.73;99047.27;681750;1278;139682;-79
2023/07/25 21:00:11;;;;;;;12.30;5.50;;;;;;;19.71;76.20;99050.95;682044;1260;139613;-78
2023/07/25 21:15:15;;;;;;;10.80;4.60;;;;;;;19.17;77.91;99054.79;679405;1262;141015;-78
2023/07/25 21:30:18;;;;;;;7.00;3.70;;;;;;;18.91;79.47;99064.45;682336;1263;139525;-79
2023/07/25 21:45:22;;;;;;;8.50;5.30;;;;;;;18.48;81.49;99074.64;681615;1261;138790;-79
2023/07/25 22:00:25;;;;;;;5.70;3.50;;;;;;;18.34;82.87;99088.37;681761;1262;139165;-79
2023/07/25 22:15:29;;;;;;;5.30;3.60;;;;;;;18.46;82.55;99092.93;679557;1260;138929;-79
2023/07/25 22:30:33;;;;;;;9.10;3.90;;;;;;;18.55;84.14;99112.23;681575;1263;139488;-79
2023/07/25 22:45:38;;;;;;;9.00;4.80;;;;;;;18.41;85.41;99109.52;680261;1271;140316;-79
2023/07/25 23:00:41;;;;;;;8.10;5.40;;;;;;;18.00;87.07;99111.30;678544;1263;139263;-80
2023/07/25 23:15:44;;;;;;;10.10;5.50;;;;;;;17.73;88.55;99114.75;680695;1258;139291;-80
2023/07/25 23:30:48;;;;;;;8.00;4.80;;;;;;;17.93;89.86;99107.63;680689;1260;139818;-79
2023/07/25 23:45:51;;;;;;;11.20;6.50;;;;;;;17.36;92.31;99112.25;679086;1262;140085;-78
